sensor_id;sensor_type;location;lat;lon;timestamp;P1;durP1;ratioP1;P2;durP2;ratioP2
3541;SDS011;1785;47.388;8.538;2023-05-14T00:00:44;11.37;;;10.33;;
3541;SDS011;1785;47.388;8.538;2023-05-14T00:03:12;12.03;;;11.00;;
3541;SDS011;1785;47.388;8.538;2023-05-14T00:05:38;12.23;;;11.20;;
3541;SDS011;1785;47.388;8.538;2023-05-14T00:08:04;11.07;;;10.10;;
3541;SDS011;1785;47.388;8.538;2023-05-14T00:10:30;10.87;;;9.87;;
3541;SDS011;1785;47.388;8.538;2023-05-14T00:12:56;10.67;;;9.67;;
3541;SDS011;1785;47.388;8.538;2023-05-14T00:15:23;12.53;;;11.33;;
3541;SDS011;1785;47.388;8.538;2023-05-14T00:17:49;12.02;;;11.00;;
3541;SDS011;1785;47.388;8.538;2023-05-14T00:20:15;13.23;;;12.03;;
3541;SDS011;1785;47.388;8.538;2023-05-14T00:22:42;11.93;;;10.93;;
3541;SDS011;1785;47.388;8.538;2023-05-14T00:25:08;12.40;;;10.33;;
3541;SDS011;1785;47.388;8.538;2023-05-14T00:27:34;10.83;;;9.93;;
3541;SDS011;1785;47.388;8.538;2023-05-14T00:30:02;10.47;;;9.67;;
3541;SDS011;1785;47.388;8.538;2023-05-14T00:32:29;10.83;;;9.90;;
3541;SDS011;1785;47.388;8.538;2023-05-14T00:34:55;10.83;;;9.93;;
3541;SDS011;1785;47.388;8.538;2023-05-14T00:37:21;10.73;;;9.83;;
3541;SDS011;1785;47.388;8.538;2023-05-14T00:39:47;11.70;;;10.60;;
3541;SDS011;1785;47.388;8.538;2023-05-14T00:42:13;11.77;;;10.77;;
3541;SDS011;1785;47.388;8.538;2023-05-14T00:44:39;12.63;;;11.53;;
3541;SDS011;1785;47.388;8.538;2023-05-14T00:47:06;11.97;;;10.97;;
3541;SDS011;1785;47.388;8.538;2023-05-14T00:49:32;12.33;;;11.23;;
3541;SDS011;1785;47.388;8.538;2023-05-14T00:51:59;12.50;;;11.50;;
3541;SDS011;1785;47.388;8.538;2023-05-14T00:54:26;12.43;;;11.23;;
3541;SDS011;1785;47.388;8.538;2023-05-14T00:56:54;11.93;;;11.00;;
3541;SDS011;1785;47.388;8.538;2023-05-14T00:59:20;12.73;;;11.43;;
3541;SDS011;1785;47.388;8.538;2023-05-14T01:01:46;10.83;;;9.93;;
3541;SDS011;1785;47.388;8.538;2023-05-14T01:04:12;11.37;;;10.47;;
3541;SDS011;1785;47.388;8.538;2023-05-14T01:06:42;11.60;;;10.50;;
3541;SDS011;1785;47.388;8.538;2023-05-14T01:09:24;11.80;;;10.80;;
3541;SDS011;1785;47.388;8.538;2023-05-14T01:11:58;12.20;;;11.10;;
3541;SDS011;1785;47.388;8.538;2023-05-14T01:14:31;11.53;;;10.53;;
3541;SDS011;1785;47.388;8.538;2023-05-14T01:17:03;13.70;;;10.23;;
3541;SDS011;1785;47.388;8.538;2023-05-14T01:19:32;11.27;;;10.27;;
3541;SDS011;1785;47.388;8.538;2023-05-14T01:22:04;12.50;;;11.20;;
3541;SDS011;1785;47.388;8.538;2023-05-14T01:24:30;11.80;;;10.80;;
3541;SDS011;1785;47.388;8.538;2023-05-14T01:26:57;11.37;;;10.47;;
3541;SDS011;1785;47.388;8.538;2023-05-14T01:29:28;12.33;;;11.23;;
3541;SDS011;1785;47.388;8.538;2023-05-14T01:31:56;11.73;;;10.70;;
3541;SDS011;1785;47.388;8.538;2023-05-14T01:34:25;11.00;;;10.00;;
3541;SDS011;1785;47.388;8.538;2023-05-14T01:36:52;12.73;;;11.60;;
3541;SDS011;1785;47.388;8.538;2023-05-14T01:39:21;12.50;;;11.30;;
3541;SDS011;1785;47.388;8.538;2023-05-14T01:41:48;12.30;;;11.30;;
3541;SDS011;1785;47.388;8.538;2023-05-14T01:44:15;10.98;;;9.98;;
3541;SDS011;1785;47.388;8.538;2023-05-14T01:46:42;12.20;;;11.00;;
3541;SDS011;1785;47.388;8.538;2023-05-14T01:49:08;12.80;;;11.70;;
3541;SDS011;1785;47.388;8.538;2023-05-14T01:51:34;12.90;;;11.77;;
3541;SDS011;1785;47.388;8.538;2023-05-14T01:54:01;11.67;;;10.77;;
3541;SDS011;1785;47.388;8.538;2023-05-14T01:56:28;12.63;;;11.63;;
3541;SDS011;1785;47.388;8.538;2023-05-14T01:58:54;11.90;;;10.90;;
3541;SDS011;1785;47.388;8.538;2023-05-14T02:01:21;14.40;;;11.17;;
3541;SDS011;1785;47.388;8.538;2023-05-14T02:03:47;12.00;;;10.90;;
3541;SDS011;1785;47.388;8.538;2023-05-14T02:06:13;12.27;;;11.23;;
3541;SDS011;1785;47.388;8.538;2023-05-14T02:08:39;12.73;;;11.43;;
3541;SDS011;1785;47.388;8.538;2023-05-14T02:11:05;12.00;;;10.90;;
3541;SDS011;1785;47.388;8.538;2023-05-14T02:13:32;13.00;;;11.90;;
3541;SDS011;1785;47.388;8.538;2023-05-14T02:15:58;11.70;;;10.60;;
3541;SDS011;1785;47.388;8.538;2023-05-14T02:18:24;12.00;;;11.03;;
3541;SDS011;1785;47.388;8.538;2023-05-14T02:20:50;13.17;;;12.07;;
3541;SDS011;1785;47.388;8.538;2023-05-14T02:23:16;12.30;;;11.30;;
3541;SDS011;1785;47.388;8.538;2023-05-14T02:25:42;12.57;;;11.47;;
3541;SDS011;1785;47.388;8.538;2023-05-14T02:28:08;13.10;;;11.90;;
3541;SDS011;1785;47.388;8.538;2023-05-14T02:30:35;12.23;;;11.13;;
3541;SDS011;1785;47.388;8.538;2023-05-14T02:33:01;12.90;;;11.63;;
3541;SDS011;1785;47.388;8.538;2023-05-14T02:35:27;12.03;;;11.00;;
3541;SDS011;1785;47.388;8.538;2023-05-14T02:37:53;11.90;;;10.83;;
3541;SDS011;1785;47.388;8.538;2023-05-14T02:40:20;12.80;;;11.70;;
3541;SDS011;1785;47.388;8.538;2023-05-14T02:42:46;13.23;;;12.07;;
3541;SDS011;1785;47.388;8.538;2023-05-14T02:45:12;13.20;;;11.03;;
3541;SDS011;1785;47.388;8.538;2023-05-14T02:47:39;12.00;;;11.00;;
3541;SDS011;1785;47.388;8.538;2023-05-14T02:50:05;13.77;;;12.67;;
3541;SDS011;1785;47.388;8.538;2023-05-14T02:52:32;12.70;;;11.60;;
3541;SDS011;1785;47.388;8.538;2023-05-14T02:54:58;12.90;;;11.60;;
3541;SDS011;1785;47.388;8.538;2023-05-14T02:57:24;12.20;;;11.20;;
3541;SDS011;1785;47.388;8.538;2023-05-14T02:59:50;13.10;;;10.15;;
3541;SDS011;1785;47.388;8.538;2023-05-14T03:02:16;12.57;;;11.57;;
3541;SDS011;1785;47.388;8.538;2023-05-14T03:04:43;12.10;;;11.00;;
3541;SDS011;1785;47.388;8.538;2023-05-14T03:07:09;12.70;;;11.60;;
3541;SDS011;1785;47.388;8.538;2023-05-14T03:09:35;13.53;;;12.23;;
3541;SDS011;1785;47.388;8.538;2023-05-14T03:12:01;12.37;;;11.33;;
3541;SDS011;1785;47.388;8.538;2023-05-14T03:14:27;11.38;;;10.27;;
3541;SDS011;1785;47.388;8.538;2023-05-14T03:16:53;12.23;;;11.13;;
3541;SDS011;1785;47.388;8.538;2023-05-14T03:19:20;12.73;;;11.53;;
3541;SDS011;1785;47.388;8.538;2023-05-14T03:21:46;11.83;;;10.93;;
3541;SDS011;1785;47.388;8.538;2023-05-14T03:24:14;12.70;;;11.70;;
3541;SDS011;1785;47.388;8.538;2023-05-14T03:26:40;13.10;;;11.70;;
3541;SDS011;1785;47.388;8.538;2023-05-14T03:29:06;13.60;;;12.20;;
3541;SDS011;1785;47.388;8.538;2023-05-14T03:31:32;12.60;;;11.30;;
3541;SDS011;1785;47.388;8.538;2023-05-14T03:33:58;12.47;;;11.43;;
3541;SDS011;1785;47.388;8.538;2023-05-14T03:36:24;13.50;;;12.23;;
3541;SDS011;1785;47.388;8.538;2023-05-14T03:38:51;13.37;;;12.17;;
3541;SDS011;1785;47.388;8.538;2023-05-14T03:41:17;13.30;;;12.10;;
3541;SDS011;1785;47.388;8.538;2023-05-14T03:43:44;12.90;;;11.67;;
3541;SDS011;1785;47.388;8.538;2023-05-14T03:46:10;13.00;;;11.90;;
3541;SDS011;1785;47.388;8.538;2023-05-14T03:48:36;11.50;;;10.50;;
3541;SDS011;1785;47.388;8.538;2023-05-14T03:51:02;12.27;;;11.07;;
3541;SDS011;1785;47.388;8.538;2023-05-14T03:53:28;11.60;;;10.60;;
3541;SDS011;1785;47.388;8.538;2023-05-14T03:55:55;10.93;;;10.03;;
3541;SDS011;1785;47.388;8.538;2023-05-14T03:58:21;11.77;;;10.77;;
3541;SDS011;1785;47.388;8.538;2023-05-14T04:00:47;11.07;;;9.97;;
3541;SDS011;1785;47.388;8.538;2023-05-14T04:03:13;12.90;;;11.80;;
3541;SDS011;1785;47.388;8.538;2023-05-14T04:05:39;12.80;;;11.70;;
3541;SDS011;1785;47.388;8.538;2023-05-14T04:08:05;11.30;;;10.30;;
3541;SDS011;1785;47.388;8.538;2023-05-14T04:10:31;11.30;;;10.30;;
3541;SDS011;1785;47.388;8.538;2023-05-14T04:12:58;11.77;;;10.80;;
3541;SDS011;1785;47.388;8.538;2023-05-14T04:15:24;11.30;;;10.40;;
3541;SDS011;1785;47.388;8.538;2023-05-14T04:17:50;12.43;;;10.87;;
3541;SDS011;1785;47.388;8.538;2023-05-14T04:20:16;11.17;;;10.37;;
3541;SDS011;1785;47.388;8.538;2023-05-14T04:22:42;12.77;;;11.70;;
3541;SDS011;1785;47.388;8.538;2023-05-14T04:25:08;11.77;;;10.77;;
3541;SDS011;1785;47.388;8.538;2023-05-14T04:27:34;11.70;;;10.70;;
3541;SDS011;1785;47.388;8.538;2023-05-14T04:30:01;12.73;;;11.63;;
3541;SDS011;1785;47.388;8.538;2023-05-14T04:32:27;12.70;;;11.33;;
3541;SDS011;1785;47.388;8.538;2023-05-14T04:34:54;12.57;;;11.37;;
3541;SDS011;1785;47.388;8.538;2023-05-14T04:37:20;11.87;;;10.93;;
3541;SDS011;1785;47.388;8.538;2023-05-14T04:39:46;11.60;;;10.67;;
3541;SDS011;1785;47.388;8.538;2023-05-14T04:42:12;11.77;;;10.70;;
3541;SDS011;1785;47.388;8.538;2023-05-14T04:44:38;12.17;;;11.13;;
3541;SDS011;1785;47.388;8.538;2023-05-14T04:47:05;10.40;;;9.50;;
3541;SDS011;1785;47.388;8.538;2023-05-14T04:49:31;11.30;;;10.20;;
3541;SDS011;1785;47.388;8.538;2023-05-14T04:51:57;11.00;;;10.10;;
3541;SDS011;1785;47.388;8.538;2023-05-14T04:54:23;11.90;;;10.90;;
3541;SDS011;1785;47.388;8.538;2023-05-14T04:56:50;10.70;;;9.80;;
3541;SDS011;1785;47.388;8.538;2023-05-14T04:59:16;10.97;;;9.90;;
3541;SDS011;1785;47.388;8.538;2023-05-14T05:01:42;11.30;;;10.20;;
3541;SDS011;1785;47.388;8.538;2023-05-14T05:04:08;10.30;;;9.40;;
3541;SDS011;1785;47.388;8.538;2023-05-14T05:06:34;11.20;;;10.30;;
3541;SDS011;1785;47.388;8.538;2023-05-14T05:09:00;11.97;;;10.90;;
3541;SDS011;1785;47.388;8.538;2023-05-14T05:11:26;10.97;;;10.07;;
3541;SDS011;1785;47.388;8.538;2023-05-14T05:13:52;10.03;;;9.23;;
3541;SDS011;1785;47.388;8.538;2023-05-14T05:16:19;9.33;;;8.63;;
3541;SDS011;1785;47.388;8.538;2023-05-14T05:18:44;9.03;;;8.33;;
3541;SDS011;1785;47.388;8.538;2023-05-14T05:21:11;9.67;;;8.93;;
3541;SDS011;1785;47.388;8.538;2023-05-14T05:23:37;11.47;;;10.37;;
3541;SDS011;1785;47.388;8.538;2023-05-14T05:26:03;9.70;;;8.90;;
3541;SDS011;1785;47.388;8.538;2023-05-14T05:28:30;11.27;;;10.03;;
3541;SDS011;1785;47.388;8.538;2023-05-14T05:30:56;10.53;;;9.50;;
3541;SDS011;1785;47.388;8.538;2023-05-14T05:33:22;11.73;;;10.50;;
3541;SDS011;1785;47.388;8.538;2023-05-14T05:35:48;10.80;;;9.80;;
3541;SDS011;1785;47.388;8.538;2023-05-14T05:38:15;10.67;;;9.77;;
3541;SDS011;1785;47.388;8.538;2023-05-14T05:40:42;11.30;;;10.30;;
3541;SDS011;1785;47.388;8.538;2023-05-14T05:43:08;10.37;;;9.57;;
3541;SDS011;1785;47.388;8.538;2023-05-14T05:45:34;10.93;;;9.87;;
3541;SDS011;1785;47.388;8.538;2023-05-14T05:48:00;10.20;;;9.40;;
3541;SDS011;1785;47.388;8.538;2023-05-14T05:50:26;10.30;;;9.40;;
3541;SDS011;1785;47.388;8.538;2023-05-14T05:52:53;10.53;;;9.63;;
3541;SDS011;1785;47.388;8.538;2023-05-14T05:55:19;10.40;;;9.53;;
3541;SDS011;1785;47.388;8.538;2023-05-14T05:57:46;11.57;;;8.67;;
3541;SDS011;1785;47.388;8.538;2023-05-14T06:00:13;10.37;;;9.47;;
3541;SDS011;1785;47.388;8.538;2023-05-14T06:02:39;10.40;;;9.60;;
3541;SDS011;1785;47.388;8.538;2023-05-14T06:05:06;12.37;;;10.17;;
3541;SDS011;1785;47.388;8.538;2023-05-14T06:07:33;10.87;;;9.97;;
3541;SDS011;1785;47.388;8.538;2023-05-14T06:09:59;10.37;;;9.57;;
3541;SDS011;1785;47.388;8.538;2023-05-14T06:12:25;11.63;;;10.73;;
3541;SDS011;1785;47.388;8.538;2023-05-14T06:14:52;10.37;;;9.50;;
3541;SDS011;1785;47.388;8.538;2023-05-14T06:17:19;12.10;;;11.00;;
3541;SDS011;1785;47.388;8.538;2023-05-14T06:19:45;11.10;;;10.20;;
3541;SDS011;1785;47.388;8.538;2023-05-14T06:22:11;11.97;;;10.93;;
3541;SDS011;1785;47.388;8.538;2023-05-14T06:24:38;12.40;;;11.30;;
3541;SDS011;1785;47.388;8.538;2023-05-14T06:27:04;10.93;;;10.03;;
3541;SDS011;1785;47.388;8.538;2023-05-14T06:29:31;12.03;;;10.67;;
3541;SDS011;1785;47.388;8.538;2023-05-14T06:31:59;12.20;;;11.20;;
3541;SDS011;1785;47.388;8.538;2023-05-14T06:34:27;11.43;;;10.33;;
3541;SDS011;1785;47.388;8.538;2023-05-14T06:36:53;11.80;;;10.70;;
3541;SDS011;1785;47.388;8.538;2023-05-14T06:39:19;12.47;;;11.37;;
3541;SDS011;1785;47.388;8.538;2023-05-14T06:41:45;12.60;;;11.43;;
3541;SDS011;1785;47.388;8.538;2023-05-14T06:44:11;12.63;;;11.53;;
3541;SDS011;1785;47.388;8.538;2023-05-14T06:46:37;12.73;;;11.60;;
3541;SDS011;1785;47.388;8.538;2023-05-14T06:49:03;12.53;;;11.23;;
3541;SDS011;1785;47.388;8.538;2023-05-14T06:51:29;13.70;;;12.30;;
3541;SDS011;1785;47.388;8.538;2023-05-14T06:53:56;13.43;;;12.07;;
3541;SDS011;1785;47.388;8.538;2023-05-14T06:56:22;13.70;;;12.23;;
3541;SDS011;1785;47.388;8.538;2023-05-14T06:58:48;12.00;;;11.00;;
3541;SDS011;1785;47.388;8.538;2023-05-14T07:01:15;13.10;;;11.83;;
3541;SDS011;1785;47.388;8.538;2023-05-14T07:03:42;14.87;;;13.47;;
3541;SDS011;1785;47.388;8.538;2023-05-14T07:06:08;14.03;;;12.70;;
3541;SDS011;1785;47.388;8.538;2023-05-14T07:08:34;14.63;;;13.33;;
3541;SDS011;1785;47.388;8.538;2023-05-14T07:11:00;13.80;;;12.60;;
3541;SDS011;1785;47.388;8.538;2023-05-14T07:13:26;15.63;;;14.17;;
3541;SDS011;1785;47.388;8.538;2023-05-14T07:15:52;14.67;;;13.27;;
3541;SDS011;1785;47.388;8.538;2023-05-14T07:18:20;14.43;;;13.03;;
3541;SDS011;1785;47.388;8.538;2023-05-14T07:20:46;14.13;;;12.73;;
3541;SDS011;1785;47.388;8.538;2023-05-14T07:23:12;13.50;;;12.30;;
3541;SDS011;1785;47.388;8.538;2023-05-14T07:25:39;13.80;;;12.50;;
3541;SDS011;1785;47.388;8.538;2023-05-14T07:28:05;13.53;;;12.23;;
3541;SDS011;1785;47.388;8.538;2023-05-14T07:30:31;13.23;;;12.07;;
3541;SDS011;1785;47.388;8.538;2023-05-14T07:32:57;14.80;;;13.40;;
3541;SDS011;1785;47.388;8.538;2023-05-14T07:35:23;14.33;;;13.03;;
3541;SDS011;1785;47.388;8.538;2023-05-14T07:37:50;13.65;;;12.40;;
3541;SDS011;1785;47.388;8.538;2023-05-14T07:40:17;13.03;;;11.73;;
3541;SDS011;1785;47.388;8.538;2023-05-14T07:42:43;14.67;;;13.17;;
3541;SDS011;1785;47.388;8.538;2023-05-14T07:45:09;12.97;;;11.83;;
3541;SDS011;1785;47.388;8.538;2023-05-14T07:47:35;13.23;;;11.93;;
3541;SDS011;1785;47.388;8.538;2023-05-14T07:50:01;13.00;;;11.70;;
3541;SDS011;1785;47.388;8.538;2023-05-14T07:52:27;13.40;;;12.20;;
3541;SDS011;1785;47.388;8.538;2023-05-14T07:54:54;12.73;;;11.63;;
3541;SDS011;1785;47.388;8.538;2023-05-14T07:57:20;10.83;;;9.83;;
3541;SDS011;1785;47.388;8.538;2023-05-14T07:59:47;11.07;;;10.07;;
3541;SDS011;1785;47.388;8.538;2023-05-14T08:02:13;10.83;;;9.93;;
3541;SDS011;1785;47.388;8.538;2023-05-14T08:04:40;9.67;;;8.80;;
3541;SDS011;1785;47.388;8.538;2023-05-14T08:07:06;9.23;;;8.20;;
3541;SDS011;1785;47.388;8.538;2023-05-14T08:09:33;10.23;;;9.33;;
3541;SDS011;1785;47.388;8.538;2023-05-14T08:12:00;11.17;;;10.17;;
3541;SDS011;1785;47.388;8.538;2023-05-14T08:14:26;9.57;;;8.80;;
3541;SDS011;1785;47.388;8.538;2023-05-14T08:16:52;10.70;;;9.90;;
3541;SDS011;1785;47.388;8.538;2023-05-14T08:19:18;10.73;;;9.70;;
3541;SDS011;1785;47.388;8.538;2023-05-14T08:21:45;8.90;;;8.20;;
3541;SDS011;1785;47.388;8.538;2023-05-14T08:24:11;8.97;;;8.17;;
3541;SDS011;1785;47.388;8.538;2023-05-14T08:26:37;9.83;;;9.00;;
3541;SDS011;1785;47.388;8.538;2023-05-14T08:29:04;10.13;;;9.23;;
3541;SDS011;1785;47.388;8.538;2023-05-14T08:31:30;11.10;;;9.23;;
3541;SDS011;1785;47.388;8.538;2023-05-14T08:33:56;11.33;;;10.30;;
3541;SDS011;1785;47.388;8.538;2023-05-14T08:36:22;10.37;;;9.47;;
3541;SDS011;1785;47.388;8.538;2023-05-14T08:38:48;9.67;;;8.87;;
3541;SDS011;1785;47.388;8.538;2023-05-14T08:41:14;11.27;;;10.20;;
3541;SDS011;1785;47.388;8.538;2023-05-14T08:43:43;11.07;;;10.07;;
3541;SDS011;1785;47.388;8.538;2023-05-14T08:46:22;10.20;;;9.40;;
3541;SDS011;1785;47.388;8.538;2023-05-14T08:48:50;9.77;;;8.80;;
3541;SDS011;1785;47.388;8.538;2023-05-14T08:51:21;10.23;;;9.17;;
3541;SDS011;1785;47.388;8.538;2023-05-14T08:53:48;9.80;;;8.90;;
3541;SDS011;1785;47.388;8.538;2023-05-14T08:56:15;9.50;;;8.60;;
3541;SDS011;1785;47.388;8.538;2023-05-14T08:58:43;10.50;;;9.40;;
3541;SDS011;1785;47.388;8.538;2023-05-14T09:01:09;8.93;;;8.17;;
3541;SDS011;1785;47.388;8.538;2023-05-14T09:03:36;9.10;;;8.33;;
3541;SDS011;1785;47.388;8.538;2023-05-14T09:06:02;9.53;;;8.73;;
3541;SDS011;1785;47.388;8.538;2023-05-14T09:08:30;8.43;;;7.60;;
3541;SDS011;1785;47.388;8.538;2023-05-14T09:10:57;8.10;;;7.33;;
3541;SDS011;1785;47.388;8.538;2023-05-14T09:13:23;9.03;;;8.13;;
3541;SDS011;1785;47.388;8.538;2023-05-14T09:15:50;8.13;;;7.43;;
3541;SDS011;1785;47.388;8.538;2023-05-14T09:18:17;8.13;;;7.43;;
3541;SDS011;1785;47.388;8.538;2023-05-14T09:20:43;5.93;;;5.43;;
3541;SDS011;1785;47.388;8.538;2023-05-14T09:23:12;7.63;;;6.93;;
3541;SDS011;1785;47.388;8.538;2023-05-14T09:25:38;7.67;;;6.87;;
3541;SDS011;1785;47.388;8.538;2023-05-14T09:28:05;7.73;;;6.17;;
3541;SDS011;1785;47.388;8.538;2023-05-14T09:30:32;7.10;;;6.50;;
3541;SDS011;1785;47.388;8.538;2023-05-14T09:33:01;7.27;;;6.67;;
3541;SDS011;1785;47.388;8.538;2023-05-14T09:35:28;7.03;;;6.43;;
3541;SDS011;1785;47.388;8.538;2023-05-14T09:37:54;5.83;;;5.40;;
3541;SDS011;1785;47.388;8.538;2023-05-14T09:40:21;6.37;;;5.87;;
3541;SDS011;1785;47.388;8.538;2023-05-14T09:42:47;8.30;;;7.50;;
3541;SDS011;1785;47.388;8.538;2023-05-14T09:45:14;8.03;;;7.33;;
3541;SDS011;1785;47.388;8.538;2023-05-14T09:47:41;8.10;;;7.40;;
3541;SDS011;1785;47.388;8.538;2023-05-14T09:50:09;6.40;;;5.80;;
3541;SDS011;1785;47.388;8.538;2023-05-14T09:52:35;7.73;;;7.03;;
3541;SDS011;1785;47.388;8.538;2023-05-14T09:55:02;7.17;;;6.57;;
3541;SDS011;1785;47.388;8.538;2023-05-14T09:57:28;7.83;;;7.07;;
3541;SDS011;1785;47.388;8.538;2023-05-14T09:59:54;11.90;;;7.00;;
3541;SDS011;1785;47.388;8.538;2023-05-14T10:02:22;8.20;;;7.40;;
3541;SDS011;1785;47.388;8.538;2023-05-14T10:04:49;7.17;;;6.50;;
3541;SDS011;1785;47.388;8.538;2023-05-14T10:07:18;8.20;;;7.40;;
3541;SDS011;1785;47.388;8.538;2023-05-14T10:09:47;7.57;;;6.97;;
3541;SDS011;1785;47.388;8.538;2023-05-14T10:12:14;7.27;;;6.53;;
3541;SDS011;1785;47.388;8.538;2023-05-14T10:14:46;7.90;;;7.20;;
3541;SDS011;1785;47.388;8.538;2023-05-14T10:17:17;8.00;;;7.20;;
3541;SDS011;1785;47.388;8.538;2023-05-14T10:19:46;7.13;;;6.53;;
3541;SDS011;1785;47.388;8.538;2023-05-14T10:22:15;6.20;;;5.70;;
3541;SDS011;1785;47.388;8.538;2023-05-14T10:24:46;6.70;;;6.20;;
3541;SDS011;1785;47.388;8.538;2023-05-14T10:27:17;6.70;;;6.10;;
3541;SDS011;1785;47.388;8.538;2023-05-14T10:29:46;6.90;;;6.30;;
3541;SDS011;1785;47.388;8.538;2023-05-14T10:32:17;7.00;;;6.40;;
3541;SDS011;1785;47.388;8.538;2023-05-14T10:34:45;5.70;;;5.20;;
3541;SDS011;1785;47.388;8.538;2023-05-14T10:37:12;5.30;;;4.90;;
3541;SDS011;1785;47.388;8.538;2023-05-14T10:39:40;5.87;;;5.40;;
3541;SDS011;1785;47.388;8.538;2023-05-14T10:42:11;6.10;;;5.60;;
3541;SDS011;1785;47.388;8.538;2023-05-14T10:44:41;4.70;;;4.30;;
3541;SDS011;1785;47.388;8.538;2023-05-14T10:47:14;5.77;;;5.30;;
3541;SDS011;1785;47.388;8.538;2023-05-14T10:49:41;5.63;;;5.20;;
3541;SDS011;1785;47.388;8.538;2023-05-14T10:52:08;5.43;;;4.97;;
3541;SDS011;1785;47.388;8.538;2023-05-14T10:54:36;5.30;;;4.80;;
3541;SDS011;1785;47.388;8.538;2023-05-14T10:57:02;5.17;;;4.77;;
3541;SDS011;1785;47.388;8.538;2023-05-14T10:59:33;4.77;;;4.47;;
3541;SDS011;1785;47.388;8.538;2023-05-14T11:02:00;4.67;;;4.27;;
3541;SDS011;1785;47.388;8.538;2023-05-14T11:04:30;4.83;;;4.43;;
3541;SDS011;1785;47.388;8.538;2023-05-14T11:06:56;3.47;;;3.27;;
3541;SDS011;1785;47.388;8.538;2023-05-14T11:09:22;4.03;;;3.73;;
3541;SDS011;1785;47.388;8.538;2023-05-14T11:11:50;4.73;;;4.17;;
3541;SDS011;1785;47.388;8.538;2023-05-14T11:14:16;3.70;;;3.50;;
3541;SDS011;1785;47.388;8.538;2023-05-14T11:16:43;3.90;;;3.70;;
3541;SDS011;1785;47.388;8.538;2023-05-14T11:19:12;4.80;;;4.40;;
3541;SDS011;1785;47.388;8.538;2023-05-14T11:21:38;5.53;;;5.13;;
3541;SDS011;1785;47.388;8.538;2023-05-14T11:24:04;6.00;;;5.37;;
3541;SDS011;1785;47.388;8.538;2023-05-14T11:26:31;5.10;;;4.70;;
3541;SDS011;1785;47.388;8.538;2023-05-14T11:28:58;4.40;;;4.00;;
3541;SDS011;1785;47.388;8.538;2023-05-14T11:31:24;5.47;;;4.97;;
3541;SDS011;1785;47.388;8.538;2023-05-14T11:33:50;5.03;;;4.63;;
3541;SDS011;1785;47.388;8.538;2023-05-14T11:36:17;8.73;;;6.60;;
3541;SDS011;1785;47.388;8.538;2023-05-14T11:38:46;5.87;;;5.47;;
3541;SDS011;1785;47.388;8.538;2023-05-14T11:41:14;5.57;;;5.17;;
3541;SDS011;1785;47.388;8.538;2023-05-14T11:43:40;6.60;;;6.10;;
3541;SDS011;1785;47.388;8.538;2023-05-14T11:46:07;7.17;;;6.57;;
3541;SDS011;1785;47.388;8.538;2023-05-14T11:48:40;6.27;;;5.67;;
3541;SDS011;1785;47.388;8.538;2023-05-14T11:51:06;8.03;;;7.23;;
3541;SDS011;1785;47.388;8.538;2023-05-14T11:53:32;8.40;;;7.60;;
3541;SDS011;1785;47.388;8.538;2023-05-14T11:55:59;9.13;;;8.10;;
3541;SDS011;1785;47.388;8.538;2023-05-14T11:58:27;8.73;;;7.90;;
3541;SDS011;1785;47.388;8.538;2023-05-14T12:00:57;9.80;;;8.90;;
3541;SDS011;1785;47.388;8.538;2023-05-14T12:03:23;8.98;;;7.60;;
3541;SDS011;1785;47.388;8.538;2023-05-14T12:05:53;9.37;;;8.37;;
3541;SDS011;1785;47.388;8.538;2023-05-14T12:08:20;8.63;;;7.83;;
3541;SDS011;1785;47.388;8.538;2023-05-14T12:10:47;9.90;;;8.90;;
3541;SDS011;1785;47.388;8.538;2023-05-14T12:13:14;9.37;;;8.57;;
3541;SDS011;1785;47.388;8.538;2023-05-14T12:15:43;9.73;;;8.83;;
3541;SDS011;1785;47.388;8.538;2023-05-14T12:18:09;8.13;;;7.43;;
3541;SDS011;1785;47.388;8.538;2023-05-14T12:20:35;6.40;;;5.90;;
3541;SDS011;1785;47.388;8.538;2023-05-14T12:23:01;7.20;;;5.80;;
3541;SDS011;1785;47.388;8.538;2023-05-14T12:25:29;7.63;;;6.00;;
3541;SDS011;1785;47.388;8.538;2023-05-14T12:27:55;6.73;;;5.90;;
3541;SDS011;1785;47.388;8.538;2023-05-14T12:30:22;7.13;;;6.53;;
3541;SDS011;1785;47.388;8.538;2023-05-14T12:32:48;8.30;;;7.50;;
3541;SDS011;1785;47.388;8.538;2023-05-14T12:35:16;9.03;;;8.23;;
3541;SDS011;1785;47.388;8.538;2023-05-14T12:37:42;10.03;;;9.10;;
3541;SDS011;1785;47.388;8.538;2023-05-14T12:40:09;11.07;;;9.87;;
3541;SDS011;1785;47.388;8.538;2023-05-14T12:42:35;9.70;;;8.73;;
3541;SDS011;1785;47.388;8.538;2023-05-14T12:45:03;10.43;;;9.57;;
3541;SDS011;1785;47.388;8.538;2023-05-14T12:47:31;11.33;;;10.20;;
3541;SDS011;1785;47.388;8.538;2023-05-14T12:49:57;10.90;;;9.90;;
3541;SDS011;1785;47.388;8.538;2023-05-14T12:52:23;10.40;;;9.37;;
3541;SDS011;1785;47.388;8.538;2023-05-14T12:54:49;10.73;;;9.80;;
3541;SDS011;1785;47.388;8.538;2023-05-14T12:57:15;10.60;;;9.50;;
3541;SDS011;1785;47.388;8.538;2023-05-14T12:59:41;10.10;;;9.30;;
3541;SDS011;1785;47.388;8.538;2023-05-14T13:02:08;10.60;;;9.70;;
3541;SDS011;1785;47.388;8.538;2023-05-14T13:04:34;8.57;;;7.83;;
3541;SDS011;1785;47.388;8.538;2023-05-14T13:07:01;8.80;;;8.00;;
3541;SDS011;1785;47.388;8.538;2023-05-14T13:09:27;9.20;;;8.17;;
3541;SDS011;1785;47.388;8.538;2023-05-14T13:11:56;7.27;;;6.57;;
3541;SDS011;1785;47.388;8.538;2023-05-14T13:14:22;8.53;;;7.73;;
3541;SDS011;1785;47.388;8.538;2023-05-14T13:16:49;7.00;;;6.40;;
3541;SDS011;1785;47.388;8.538;2023-05-14T13:19:15;8.47;;;7.77;;
3541;SDS011;1785;47.388;8.538;2023-05-14T13:21:41;7.10;;;6.50;;
3541;SDS011;1785;47.388;8.538;2023-05-14T13:24:07;6.00;;;5.50;;
3541;SDS011;1785;47.388;8.538;2023-05-14T13:26:35;6.10;;;5.70;;
3541;SDS011;1785;47.388;8.538;2023-05-14T13:29:01;6.77;;;6.17;;
3541;SDS011;1785;47.388;8.538;2023-05-14T13:31:27;7.03;;;6.33;;
3541;SDS011;1785;47.388;8.538;2023-05-14T13:33:53;6.80;;;6.20;;
3541;SDS011;1785;47.388;8.538;2023-05-14T13:36:20;7.50;;;6.37;;
3541;SDS011;1785;47.388;8.538;2023-05-14T13:38:46;7.63;;;6.90;;
3541;SDS011;1785;47.388;8.538;2023-05-14T13:41:12;6.10;;;5.50;;
3541;SDS011;1785;47.388;8.538;2023-05-14T13:43:38;6.50;;;6.00;;
3541;SDS011;1785;47.388;8.538;2023-05-14T13:46:04;6.80;;;6.30;;
3541;SDS011;1785;47.388;8.538;2023-05-14T13:48:31;15.23;;;8.30;;
3541;SDS011;1785;47.388;8.538;2023-05-14T13:50:57;7.40;;;6.63;;
3541;SDS011;1785;47.388;8.538;2023-05-14T13:53:24;7.17;;;6.50;;
3541;SDS011;1785;47.388;8.538;2023-05-14T13:55:51;6.50;;;6.00;;
3541;SDS011;1785;47.388;8.538;2023-05-14T13:58:20;6.67;;;6.07;;
3541;SDS011;1785;47.388;8.538;2023-05-14T14:00:46;5.73;;;5.23;;
3541;SDS011;1785;47.388;8.538;2023-05-14T14:03:12;5.33;;;4.93;;
3541;SDS011;1785;47.388;8.538;2023-05-14T14:05:39;5.40;;;4.90;;
3541;SDS011;1785;47.388;8.538;2023-05-14T14:08:05;6.97;;;6.10;;
3541;SDS011;1785;47.388;8.538;2023-05-14T14:10:32;8.50;;;5.63;;
3541;SDS011;1785;47.388;8.538;2023-05-14T14:12:58;5.07;;;4.67;;
3541;SDS011;1785;47.388;8.538;2023-05-14T14:15:24;4.43;;;4.13;;
3541;SDS011;1785;47.388;8.538;2023-05-14T14:17:50;4.60;;;4.00;;
3541;SDS011;1785;47.388;8.538;2023-05-14T14:20:16;4.60;;;4.30;;
3541;SDS011;1785;47.388;8.538;2023-05-14T14:22:42;3.87;;;3.57;;
3541;SDS011;1785;47.388;8.538;2023-05-14T14:25:09;3.10;;;2.90;;
3541;SDS011;1785;47.388;8.538;2023-05-14T14:27:37;2.47;;;2.33;;
3541;SDS011;1785;47.388;8.538;2023-05-14T14:30:04;3.13;;;2.83;;
3541;SDS011;1785;47.388;8.538;2023-05-14T14:32:31;2.90;;;2.70;;
3541;SDS011;1785;47.388;8.538;2023-05-14T14:34:58;4.87;;;2.80;;
3541;SDS011;1785;47.388;8.538;2023-05-14T14:37:24;3.50;;;3.20;;
3541;SDS011;1785;47.388;8.538;2023-05-14T14:39:50;3.43;;;2.87;;
3541;SDS011;1785;47.388;8.538;2023-05-14T14:42:16;3.67;;;3.37;;
3541;SDS011;1785;47.388;8.538;2023-05-14T14:44:42;3.50;;;3.27;;
3541;SDS011;1785;47.388;8.538;2023-05-14T14:47:09;3.10;;;2.83;;
3541;SDS011;1785;47.388;8.538;2023-05-14T14:49:35;3.27;;;3.07;;
3541;SDS011;1785;47.388;8.538;2023-05-14T14:52:01;3.30;;;3.10;;
3541;SDS011;1785;47.388;8.538;2023-05-14T14:54:27;2.93;;;2.73;;
3541;SDS011;1785;47.388;8.538;2023-05-14T14:56:53;2.60;;;2.40;;